• Join FlightAware (Why Join?)
  • Login
  • US Flag 
08:49PM EST


 

Airport Tracker/Info


-or-


 

Live Flight TrackerFlight Track Log ✈ SKW5305 ✈ 07-May-2013 ✈ KSEA - KPDX

Flight Track Log - Related Links

Times and Time Zones

All times are in EDT time to prevent confusion due to time zone crossing. See the SKW5305 flight status page for this flight to view local times or setup timezone preferences in your user account.

Time Position Orientation Groundspeed Altitude Reporting Facility
EDT Latitude Longitude Course Direction KTS MPH feet Rate Location/Type
08:29PM 47.4392 -122.3083 180° South 150 173 1,100  Level Seattle Center
08:30PM 47.4089 -122.3117 184° South 157 181 2,200 1,680 Climbing Seattle Center
08:31PM 47.3753 -122.3128 181° South 173 199 3,500 1,740 Climbing Seattle Center
08:31PM 47.3581 -122.3136 182° South 189 217 4,000 1,620 Climbing Seattle Center
08:32PM 47.3233 -122.3094 175° South 184 212 5,200 1,620 Climbing Seattle Center
08:32PM 47.3061 -122.3094 180° South 195 224 5,700 1,440 Climbing Seattle Center
08:33PM 47.2667 -122.3081 179° South 202 232 6,700 1,440 Climbing Seattle Center
08:33PM 47.2369 -122.3083 180° South 214 246 7,300 1,620 Climbing Seattle Center
08:34PM 46.9791 -122.3858 180° South  Level Estimated
08:34PM 47.2050 -122.3103 182° South 219 252 8,400  Level Seattle Center
08:35PM 46.8849 -122.4004 180° South  Level Estimated
08:35PM 47.1361 -122.3108 180° South 236 272 9,000  Level Seattle Center
08:36PM 47.0653 -122.3100 180° South 257 296 8,900 240 Descending Seattle Center
08:37PM 46.9939 -122.3083 179° South 258 297 9,500 540 Climbing Seattle Center
08:38PM 46.9225 -122.3075 180° South 258 297 10,100 600 Climbing Seattle Center
08:39PM 46.8439 -122.3114 182° South 262 302 10,800 900 Climbing Seattle Center
08:40PM 46.7744 -122.3108 180° South 250 288 12,000 960 Climbing Seattle Center
08:41PM 46.7144 -122.3097 179° South 243 280 12,800 420 Climbing Seattle Center
08:42PM 46.6419 -122.3117 181° South 263 303 12,900  Climbing Seattle Center
08:43PM 46.5700 -122.3286 189° South 266 306 12,900  Level Seattle Center
08:44PM 46.4967 -122.3378 185° South 268 308 12,900 60 Level Seattle Center
08:44PM 46.4481 -122.3497 190° South 266 306 13,000 -120 Climbing Seattle Center
08:45PM 46.4081 -122.3492 179° South 273 314 12,800 -900 Descending Seattle Center
08:46PM 46.3344 -122.3639 188° South 271 312 11,700 -1,080 Descending Seattle Center
08:47PM 46.2617 -122.3769 187° South 266 306 10,700 -900 Descending Seattle Center
08:48PM 46.1811 -122.3856 184° South 273 314 9,900 -600 Descending Seattle Center
08:49PM 46.1083 -122.3989 187° South 265 305 9,500 -1,080 Descending Seattle Center
08:50PM 46.0211 -122.4467 201° Southwest 274 315 7,600 -1,680 Descending Seattle Center
08:51PM 45.9686 -122.4750 201° Southwest 262 302 6,200 -960 Descending Seattle Center
08:52PM 45.9006 -122.5069 198° South 258 297 5,900 -180 Descending Seattle Center
08:53PM 45.8411 -122.5422 202° Southwest 237 273 5,900  Level Seattle Center
08:54PM 45.7594 -122.5794 198° South 253 291 6,000  Climbing Seattle Center
08:55PM 45.7108 -122.5722 174° South 256 295 5,900 -120 Descending Seattle Center
08:56PM 45.6719 -122.5028 129° Southeast 234 269 5,800 -420 Descending Seattle Center
08:57PM 45.6425 -122.4414 124° Southeast 206 237 5,100 -480 Descending Seattle Center
08:58PM 45.6128 -122.3764 123° Southeast 196 226 4,900 -120 Descending Seattle Center
08:59PM 45.5822 -122.3131 125° Southeast 194 223 4,900  Level Seattle Center
09:00PM 45.5539 -122.2519 123° Southeast 190 219 4,900  Level Seattle Center
09:01PM 45.5142 -122.1983 137° Southeast 205 236 4,900  Level Seattle Center
09:02PM 45.4525 -122.1761 166° South 199 229 4,900  Level Seattle Center
09:03PM 45.4542 -122.2386 272° West 165 190 4,900 -300 Level Seattle Center
09:04PM 45.4786 -122.2975 301° West 171 197 4,300 -840 Descending Seattle Center
09:05PM 45.5000 -122.3589 296° West 174 200 3,300 -960 Descending Seattle Center
09:06PM 45.5242 -122.4136 302° West 167 192 2,400 -900 Descending Seattle Center
09:07PM 45.5478 -122.4739 299° West 171 197 1,500 -900 Descending Seattle Center